Time;durP1;ratioP1;P1;durP2;ratioP2;P2;SDS_P1;SDS_P2;PMS_P1;PMS_P2;Temp;Humidity;BMP_temperature;BMP_pressure;BME280_temperature;BME280_humidity;BME280_pressure;Samples;Min_cycle;Max_cycle;Signal;HPM_P1;HPM_P2
2023/07/02 00:00:54;;;;;;;;;1.00;1.00;;;;;22.40;69.75;100692.41;5023053;28;45440;-72
2023/07/02 00:03:21;;;;;;;;;3.00;2.00;;;;;22.28;69.58;100677.53;5018634;28;45511;-73
2023/07/02 00:05:49;;;;;;;;;2.33;1.33;;;;;22.40;69.43;100684.44;5022962;28;46686;-73
2023/07/02 00:08:15;;;;;;;;;1.00;1.00;;;;;22.39;69.59;100688.88;5021721;28;45398;-72
2023/07/02 00:10:41;;;;;;;;;1.33;1.33;;;;;22.41;69.33;100686.22;5022354;28;45529;-77
2023/07/02 00:13:07;;;;;;;;;1.67;1.00;;;;;22.44;68.67;100680.81;5026282;28;45331;-77
2023/07/02 00:15:32;;;;;;;;;2.67;1.00;;;;;22.44;68.43;100673.72;5019523;28;45406;-78
2023/07/02 00:17:58;;;;;;;;;1.00;1.00;;;;;22.39;69.21;100664.06;5022036;28;45560;-78
2023/07/02 00:20:24;;;;;;;;;2.00;2.00;;;;;22.29;69.40;100662.47;5026943;28;45384;-78
2023/07/02 00:22:50;;;;;;;;;1.00;1.00;;;;;22.33;69.47;100662.38;5022167;28;45395;-78
2023/07/02 00:25:15;;;;;;;;;2.00;2.00;;;;;22.38;70.04;100670.28;5019569;28;45550;-78
2023/07/02 00:27:41;;;;;;;;;2.00;2.00;;;;;22.33;70.20;100659.72;5025060;28;45474;-78
2023/07/02 00:30:07;;;;;;;;;1.00;1.00;;;;;22.38;70.04;100673.84;5018054;28;45463;-77
2023/07/02 00:32:33;;;;;;;;;1.00;1.00;;;;;22.39;70.24;100672.03;5021839;28;45432;-77
2023/07/02 00:34:58;;;;;;;;;1.00;1.00;;;;;22.35;69.92;100671.22;5019361;28;45577;-77
2023/07/02 00:37:24;;;;;;;;;2.00;2.00;;;;;22.35;70.39;100667.69;5017714;28;45593;-78
2023/07/02 00:39:50;;;;;;;;;1.00;1.00;;;;;22.37;69.70;100672.06;5019476;28;45541;-78
2023/07/02 00:42:16;;;;;;;;;1.00;1.00;;;;;22.37;69.71;100665.88;5021059;28;45528;-78
2023/07/02 00:44:43;;;;;;;;;2.33;1.00;;;;;22.36;69.75;100658.78;5018468;28;47237;-78
2023/07/02 00:47:10;;;;;;;;;2.00;2.00;;;;;22.38;69.68;100657.88;5021059;28;45421;-78
2023/07/02 00:49:36;;;;;;;;;3.00;1.00;;;;;22.38;69.97;100655.22;5019516;28;45499;-78
2023/07/02 00:52:02;;;;;;;;;3.00;1.67;;;;;22.35;69.92;100657.91;5023995;28;45391;-78
2023/07/02 00:54:31;;;;;;;;;2.00;2.00;;;;;22.35;69.93;100657.03;5018601;28;46089;-78
2023/07/02 00:56:57;;;;;;;;;1.67;1.33;;;;;22.31;69.64;100650.88;5019334;28;45486;-78
2023/07/02 00:59:23;;;;;;;;;0.00;0.00;;;;;22.31;69.91;100655.34;5022313;28;45367;-78
2023/07/02 01:01:49;;;;;;;;;1.00;1.00;;;;;22.26;69.54;100641.22;5020963;28;45510;-78
2023/07/02 01:04:18;;;;;;;;;0.00;0.00;;;;;22.28;69.67;100639.41;5021427;28;45582;-77
2023/07/02 01:06:45;;;;;;;;;1.00;1.00;;;;;22.28;69.24;100648.25;5018579;28;46488;-78
2023/07/02 01:09:11;;;;;;;;;0.00;0.00;;;;;22.16;70.14;100643.09;5020598;28;45477;-78
2023/07/02 01:11:36;;;;;;;;;1.67;0.67;;;;;22.10;70.41;100648.53;5020887;28;45479;-78
2023/07/02 01:14:07;;;;;;;;;1.00;0.00;;;;;22.07;69.79;100630.84;5021133;28;46154;-78
2023/07/02 01:16:33;;;;;;;;;1.67;1.00;;;;;22.15;70.25;100641.38;5020021;28;45522;-78
2023/07/02 01:19:04;;;;;;;;;1.00;0.33;;;;;22.13;70.69;100640.50;5028549;28;45592;-77
2023/07/02 01:21:34;;;;;;;;;0.00;0.00;;;;;22.07;71.21;100633.50;5020668;28;45521;-77
2023/07/02 01:24:01;;;;;;;;;0.00;0.00;;;;;22.13;71.38;100646.72;5021714;28;46042;-78
2023/07/02 01:26:33;;;;;;;;;0.67;0.67;;;;;22.13;71.22;100646.72;5017719;28;45352;-78
2023/07/02 01:28:59;;;;;;;;;1.00;1.00;;;;;22.10;71.37;100646.75;5019793;28;45318;-78
2023/07/02 01:31:25;;;;;;;;;0.33;0.33;;;;;22.11;71.79;100640.53;5016664;28;45489;-78
2023/07/02 01:33:51;;;;;;;;;1.00;1.00;;;;;22.16;71.86;100649.34;5022181;28;45551;-78
2023/07/02 01:36:17;;;;;;;;;1.00;1.00;;;;;22.17;71.51;100650.19;5019677;28;45589;-77
2023/07/02 01:38:42;;;;;;;;;0.67;0.67;;;;;22.14;71.25;100648.44;5023994;28;45431;-77
2023/07/02 01:41:08;;;;;;;;;0.33;0.00;;;;;22.12;71.04;100638.75;5022638;28;45535;-78
2023/07/02 01:43:33;;;;;;;;;1.00;1.00;;;;;22.19;71.38;100651.94;5006463;28;46744;-77
2023/07/02 01:46:01;;;;;;;;;0.33;0.33;;;;;22.19;71.23;100641.28;5023670;28;45530;-78
2023/07/02 01:48:27;;;;;;;;;0.67;0.67;;;;;22.21;70.87;100635.94;5018811;28;45545;-77
2023/07/02 01:50:52;;;;;;;;;0.00;0.00;;;;;22.29;70.63;100639.38;5015305;28;45603;-75
2023/07/02 01:53:18;;;;;;;;;0.00;0.00;;;;;22.26;70.43;100638.53;5019318;28;46095;-78
2023/07/02 01:55:43;;;;;;;;;0.67;0.00;;;;;22.25;71.02;100643.00;5023960;28;45411;-78
2023/07/02 01:58:09;;;;;;;;;1.00;0.00;;;;;22.14;71.13;100645.78;5018534;28;45372;-78
2023/07/02 02:00:34;;;;;;;;;0.00;0.00;;;;;22.13;70.81;100628.09;5020327;28;45363;-78
2023/07/02 02:03:00;;;;;;;;;0.00;0.00;;;;;22.14;70.81;100626.28;5020457;28;45506;-77
2023/07/02 02:05:25;;;;;;;;;0.00;0.00;;;;;22.24;70.66;100630.59;5018054;28;45629;-78
2023/07/02 02:07:51;;;;;;;;;0.00;0.00;;;;;22.24;70.69;100633.25;5019179;28;45472;-78
2023/07/02 02:10:16;;;;;;;;;0.00;0.00;;;;;22.27;69.92;100632.34;5018400;28;45383;-77
2023/07/02 02:12:42;;;;;;;;;0.00;0.00;;;;;22.19;70.41;100608.47;5018278;28;46355;-78
2023/07/02 02:15:08;;;;;;;;;1.00;0.00;;;;;22.21;70.26;100612.88;5019370;28;45481;-78
2023/07/02 02:17:35;;;;;;;;;0.00;0.00;;;;;22.24;70.32;100617.28;5034921;28;45538;-78
2023/07/02 02:20:00;;;;;;;;;1.00;0.00;;;;;22.20;70.36;100610.22;5037866;28;45459;-77
2023/07/02 02:22:26;;;;;;;;;0.67;0.00;;;;;22.21;70.54;100617.31;5039294;28;46009;-77
2023/07/02 02:24:51;;;;;;;;;1.00;0.00;;;;;22.19;70.69;100616.47;5037657;28;45405;-78
2023/07/02 02:27:17;;;;;;;;;0.00;0.00;;;;;22.22;70.00;100619.06;5032986;28;45486;-78
2023/07/02 02:29:42;;;;;;;;;0.00;0.00;;;;;22.24;70.17;100610.19;5019888;28;45317;-78
2023/07/02 02:32:08;;;;;;;;;0.00;0.00;;;;;22.26;70.07;100615.47;5019520;28;46305;-77
2023/07/02 02:34:33;;;;;;;;;0.00;0.00;;;;;22.27;70.00;100608.38;5035872;28;45296;-78
2023/07/02 02:36:59;;;;;;;;;0.00;0.00;;;;;22.24;70.32;100609.28;5038391;28;45449;-78
2023/07/02 02:39:24;;;;;;;;;0.00;0.00;;;;;22.19;70.59;100608.47;5037191;28;45808;-77
2023/07/02 02:41:50;;;;;;;;;0.00;0.00;;;;;22.18;71.11;100604.06;5039269;28;45898;-78
2023/07/02 02:44:15;;;;;;;;;0.00;0.00;;;;;22.11;71.47;100608.59;5038658;28;45379;-78
2023/07/02 02:46:41;;;;;;;;;1.00;1.00;;;;;22.05;72.10;100598.94;5039160;28;45204;-77
2023/07/02 02:49:06;;;;;;;;;0.00;0.00;;;;;22.10;71.44;100606.84;5038604;28;45322;-77
2023/07/02 02:51:32;;;;;;;;;0.00;0.00;;;;;22.14;71.40;100603.22;5039131;28;46137;-78
2023/07/02 02:53:57;;;;;;;;;0.00;0.00;;;;;22.14;71.59;100615.66;5038900;28;45484;-78
2023/07/02 02:56:23;;;;;;;;;0.33;0.33;;;;;22.16;71.64;100612.09;5039319;28;45653;-78
2023/07/02 02:58:48;;;;;;;;;1.00;0.00;;;;;22.14;71.66;100616.53;5038418;28;45312;-78
2023/07/02 03:01:14;;;;;;;;;0.00;0.00;;;;;22.17;71.15;100605.84;5037284;28;45450;-78
2023/07/02 03:03:44;;;;;;;;;0.33;0.00;;;;;22.15;70.60;100601.47;5038503;28;45496;-77
2023/07/02 03:06:10;;;;;;;;;0.00;0.00;;;;;22.14;70.74;100595.22;5036421;28;47066;-78
2023/07/02 03:08:36;;;;;;;;;0.00;0.00;;;;;22.21;70.96;100612.00;5039144;28;45224;-78
2023/07/02 03:11:01;;;;;;;;;0.00;0.00;;;;;22.12;71.28;100605.03;5038263;28;45450;-78
2023/07/02 03:13:27;;;;;;;;;0.00;0.00;;;;;22.15;71.08;100612.09;5029190;28;45423;-73
2023/07/02 03:15:52;;;;;;;;;0.00;0.00;;;;;22.19;70.83;100605.81;5019210;28;45434;-78
2023/07/02 03:18:18;;;;;;;;;0.00;0.00;;;;;22.19;70.77;100597.84;5019051;28;45479;-78
2023/07/02 03:20:43;;;;;;;;;0.33;0.00;;;;;22.23;70.79;100604.88;5017398;28;46514;-78
2023/07/02 03:23:09;;;;;;;;;1.67;0.00;;;;;22.28;70.45;100600.34;5033451;28;45179;-78
2023/07/02 03:25:34;;;;;;;;;1.00;0.00;;;;;22.31;70.02;100597.66;5037902;28;45697;-78
2023/07/02 03:28:00;;;;;;;;;0.00;0.00;;;;;22.31;70.35;100586.13;5038810;28;45415;-77
2023/07/02 03:30:25;;;;;;;;;0.00;0.00;;;;;22.28;69.96;100591.50;5036585;28;45618;-77
2023/07/02 03:32:51;;;;;;;;;0.00;0.00;;;;;22.30;69.31;100590.56;5037254;28;45380;-76
2023/07/02 03:35:16;;;;;;;;;0.00;0.00;;;;;22.21;70.08;100580.94;5038451;28;45544;-77
2023/07/02 03:37:43;;;;;;;;;0.00;0.00;;;;;22.23;70.15;100580.91;5037830;28;45373;-78
2023/07/02 03:40:09;;;;;;;;;0.00;0.00;;;;;22.30;70.04;100590.56;5029426;28;45967;-77
2023/07/02 03:42:35;;;;;;;;;0.00;0.00;;;;;22.30;70.19;100581.72;5016996;28;45637;-77
2023/07/02 03:45:00;;;;;;;;;0.00;0.00;;;;;22.25;69.79;100581.78;5017209;28;45256;-76
2023/07/02 03:47:26;;;;;;;;;0.00;0.00;;;;;22.26;69.62;100583.53;5019051;28;45308;-77
2023/07/02 03:49:51;;;;;;;;;0.00;0.00;;;;;22.30;70.05;100584.38;5015979;28;47877;-77
2023/07/02 03:52:17;;;;;;;;;1.00;0.00;;;;;22.23;70.46;100580.91;5017945;28;45280;-78
2023/07/02 03:54:42;;;;;;;;;0.00;0.00;;;;;22.18;71.02;100589.00;5017921;28;45466;-77
2023/07/02 03:57:08;;;;;;;;;0.00;0.00;;;;;22.18;70.67;100581.00;5017927;28;45225;-78
2023/07/02 03:59:35;;;;;;;;;0.00;0.00;;;;;22.26;70.36;100580.00;5017971;28;45339;-77
2023/07/02 04:02:00;;;;;;;;;0.00;0.00;;;;;22.30;70.06;100584.38;5017767;28;45425;-77
2023/07/02 04:04:26;;;;;;;;;0.00;0.00;;;;;22.30;70.25;100587.91;5018576;28;45378;-77
2023/07/02 04:06:51;;;;;;;;;0.00;0.00;;;;;22.20;70.54;100573.88;5016827;28;45463;-76
2023/07/02 04:09:18;;;;;;;;;1.00;0.00;;;;;22.29;70.54;100595.94;5017114;28;46118;-76
2023/07/02 04:11:44;;;;;;;;;0.00;0.00;;;;;22.20;70.96;100588.94;5033120;28;45435;-76
2023/07/02 04:14:09;;;;;;;;;1.00;0.00;;;;;22.23;70.93;100584.44;5027773;28;45359;-76
2023/07/02 04:16:35;;;;;;;;;0.00;0.00;;;;;22.26;70.66;100583.53;5038121;28;45469;-76
2023/07/02 04:19:00;;;;;;;;;1.00;0.00;;;;;22.30;70.17;100587.91;5037260;28;45531;-73
2023/07/02 04:21:26;;;;;;;;;0.00;0.00;;;;;22.30;70.38;100576.38;5032066;28;45359;-78
2023/07/02 04:23:51;;;;;;;;;0.00;0.00;;;;;22.29;70.57;100588.81;5003464;28;45536;-78
2023/07/02 04:26:17;;;;;;;;;0.00;0.00;;;;;22.27;70.65;100579.97;4997760;28;45332;-78
2023/07/02 04:28:43;;;;;;;;;0.00;0.00;;;;;22.24;70.64;100572.03;5008158;28;45465;-78
2023/07/02 04:31:09;;;;;;;;;0.00;0.00;;;;;22.29;70.18;100580.84;4997890;28;45306;-78
2023/07/02 04:33:35;;;;;;;;;0.00;0.00;;;;;22.34;70.55;100586.06;4997648;28;45457;-78
2023/07/02 04:36:03;;;;;;;;;0.00;0.00;;;;;22.26;70.12;100578.22;4999143;28;45432;-78
2023/07/02 04:38:28;;;;;;;;;0.00;0.00;;;;;22.34;69.64;100592.28;5037702;28;46014;-77
2023/07/02 04:40:54;;;;;;;;;0.00;0.00;;;;;22.27;69.93;100579.97;5020242;28;45552;-77
2023/07/02 04:43:20;;;;;;;;;0.00;0.00;;;;;22.28;70.40;100587.03;5003503;28;45521;-76
2023/07/02 04:45:48;;;;;;;;;0.00;0.00;;;;;22.31;70.02;100588.78;4997722;28;45468;-76
2023/07/02 04:48:13;;;;;;;;;0.00;0.00;;;;;22.38;70.10;100596.66;5020568;28;45428;-78
2023/07/02 04:50:39;;;;;;;;;0.00;0.00;;;;;22.39;70.08;100595.72;5037437;28;45474;-78
2023/07/02 04:53:04;;;;;;;;;1.00;0.00;;;;;22.42;70.13;100601.00;5021825;28;45383;-76
2023/07/02 04:55:30;;;;;;;;;0.00;0.00;;;;;22.44;69.38;100599.19;5017103;28;45457;-76
2023/07/02 04:57:55;;;;;;;;;0.00;0.00;;;;;22.38;69.91;100582.44;5016356;28;46181;-75
2023/07/02 05:00:22;;;;;;;;;0.00;0.00;;;;;22.46;70.05;100599.16;5017407;28;45257;-78
2023/07/02 05:02:47;;;;;;;;;0.00;0.00;;;;;22.43;69.44;100596.56;5027937;28;45302;-73
2023/07/02 05:05:13;;;;;;;;;0.00;0.00;;;;;22.49;69.94;100600.91;5016029;28;45354;-73
2023/07/02 05:07:40;;;;;;;;;1.00;0.00;;;;;22.46;69.83;100590.28;5016290;28;45448;-76
2023/07/02 05:10:06;;;;;;;;;0.00;0.00;;;;;22.54;69.71;100605.22;5016063;28;45403;-71
2023/07/02 05:12:32;;;;;;;;;0.67;0.67;;;;;22.57;69.77;100609.63;5016620;28;45344;-76
2023/07/02 05:14:58;;;;;;;;;0.33;0.33;;;;;22.57;69.33;100606.94;5016327;28;46142;-75
2023/07/02 05:17:23;;;;;;;;;1.00;1.00;;;;;22.55;69.48;100601.66;5015963;28;45942;-74
2023/07/02 05:19:49;;;;;;;;;0.00;0.00;;;;;22.60;69.50;100602.47;5006165;28;45805;-76
2023/07/02 05:22:14;;;;;;;;;1.00;0.00;;;;;22.60;69.45;100593.56;5005978;28;45248;-77
2023/07/02 05:24:40;;;;;;;;;1.00;0.00;;;;;22.60;69.50;100582.91;5013041;28;45448;-75
2023/07/02 05:27:06;;;;;;;;;0.00;0.00;;;;;22.66;69.17;100598.81;5007078;28;45509;-76
2023/07/02 05:29:31;;;;;;;;;1.00;0.00;;;;;22.68;69.81;100604.06;5005549;28;45369;-72
2023/07/02 05:31:57;;;;;;;;;2.00;1.00;;;;;22.68;69.37;100602.31;5005142;28;45277;-77
2023/07/02 05:34:22;;;;;;;;;0.00;0.00;;;;;22.68;69.35;100599.66;5010709;28;45440;-77
2023/07/02 05:36:48;;;;;;;;;0.33;0.00;;;;;22.71;69.46;100588.06;5015926;28;46184;-72
2023/07/02 05:39:14;;;;;;;;;2.00;1.67;;;;;22.70;69.56;100588.94;5015348;28;45438;-71
2023/07/02 05:41:40;;;;;;;;;1.00;0.33;;;;;22.80;69.66;100591.41;5015877;28;45352;-78
2023/07/02 05:44:05;;;;;;;;;0.33;0.33;;;;;22.83;68.63;100591.34;5017777;28;45474;-72
2023/07/02 05:46:31;;;;;;;;;1.00;0.00;;;;;22.92;68.83;100590.28;5015703;28;45340;-76
2023/07/02 05:48:57;;;;;;;;;0.00;0.00;;;;;22.97;68.54;100592.84;5011318;28;45393;-77
2023/07/02 05:51:25;;;;;;;;;0.33;0.33;;;;;22.97;68.65;100598.19;5022832;28;45431;-77
2023/07/02 05:53:51;;;;;;;;;0.67;0.00;;;;;23.04;68.26;100605.19;5007002;28;45535;-76
2023/07/02 05:56:17;;;;;;;;;1.00;0.00;;;;;23.04;68.65;100599.84;5009060;28;46192;-76
2023/07/02 05:58:43;;;;;;;;;0.00;0.00;;;;;23.10;67.99;100609.50;5024970;28;45525;-77
2023/07/02 06:01:08;;;;;;;;;0.00;0.00;;;;;23.10;68.48;100618.38;5021521;28;45304;-77
2023/07/02 06:03:34;;;;;;;;;1.00;0.67;;;;;23.11;67.92;100612.13;5023627;28;45436;-77
2023/07/02 06:05:59;;;;;;;;;0.00;0.00;;;;;23.14;68.04;100614.75;5023038;28;45447;-77
2023/07/02 06:08:25;;;;;;;;;1.00;1.00;;;;;23.10;68.14;100614.81;5018970;28;45446;-77
2023/07/02 06:10:51;;;;;;;;;1.00;1.00;;;;;23.16;68.50;100614.72;5019121;28;45535;-75
2023/07/02 06:13:17;;;;;;;;;0.00;0.00;;;;;23.17;68.01;100612.00;5019190;28;45270;-74
2023/07/02 06:15:43;;;;;;;;;2.00;1.00;;;;;23.20;67.88;100616.41;5019011;28;45821;-77
2023/07/02 06:18:08;;;;;;;;;0.00;0.00;;;;;23.22;68.30;100615.44;5018484;28;45580;-76
2023/07/02 06:20:34;;;;;;;;;0.67;0.00;;;;;23.25;68.18;100621.63;5019050;28;45252;-76
2023/07/02 06:22:59;;;;;;;;;1.00;1.00;;;;;23.26;67.72;100620.69;5020352;28;45467;-77
2023/07/02 06:25:26;;;;;;;;;1.33;1.00;;;;;23.23;67.95;100611.88;5017101;28;46331;-73
2023/07/02 06:27:53;;;;;;;;;1.00;1.00;;;;;23.37;67.36;100614.22;5018133;28;45387;-74
2023/07/02 06:30:19;;;;;;;;;0.33;0.00;;;;;23.42;67.69;100617.69;5021660;28;45281;-77
2023/07/02 06:32:44;;;;;;;;;1.00;0.00;;;;;23.45;67.13;100615.88;5028719;28;45293;-78
2023/07/02 06:35:10;;;;;;;;;0.00;0.00;;;;;23.38;67.49;100608.00;5017813;28;45497;-78
2023/07/02 06:37:36;;;;;;;;;1.00;1.00;;;;;23.43;67.37;100603.44;5019326;28;45166;-78
2023/07/02 06:40:01;;;;;;;;;1.00;0.00;;;;;23.50;67.20;100614.00;5018086;28;45764;-78
2023/07/02 06:42:27;;;;;;;;;2.33;1.00;;;;;23.52;67.04;100623.69;5018487;28;45387;-78
2023/07/02 06:44:52;;;;;;;;;1.00;1.00;;;;;23.46;67.32;100605.19;5017926;28;45582;-76
2023/07/02 06:47:18;;;;;;;;;0.00;0.00;;;;;23.52;67.26;100613.03;5018249;28;45530;-78
2023/07/02 06:49:43;;;;;;;;;3.00;1.00;;;;;23.61;67.20;100617.28;5017612;28;45451;-77
2023/07/02 06:52:09;;;;;;;;;1.00;1.00;;;;;23.65;67.18;100610.94;5019264;28;45407;-78
2023/07/02 06:54:34;;;;;;;;;0.00;0.00;;;;;23.85;67.08;100620.31;5018276;28;45376;-76
2023/07/02 06:57:00;;;;;;;;;1.00;1.00;;;;;23.93;66.03;100613.88;5018785;28;45548;-77
2023/07/02 06:59:26;;;;;;;;;2.00;1.00;;;;;24.16;65.27;100639.13;5016572;28;45552;-75
2023/07/02 07:01:52;;;;;;;;;0.33;0.33;;;;;24.27;65.43;100637.06;5028397;28;45856;-77
2023/07/02 07:04:18;;;;;;;;;1.00;1.00;;;;;24.29;65.41;100637.94;5038231;28;46157;-78
2023/07/02 07:06:44;;;;;;;;;1.00;1.00;;;;;24.32;65.56;100643.16;5027941;28;45546;-77
2023/07/02 07:09:09;;;;;;;;;0.00;0.00;;;;;24.06;65.07;100593.13;5017776;28;45463;-76
2023/07/02 07:11:35;;;;;;;;;2.00;2.00;;;;;24.30;64.81;100644.13;5019166;28;45541;-78
2023/07/02 07:14:00;;;;;;;;;1.00;1.00;;;;;24.37;65.20;100641.28;5021912;28;46045;-78
2023/07/02 07:16:26;;;;;;;;;2.00;2.00;;;;;24.42;64.59;100647.34;5038255;28;45252;-78
2023/07/02 07:18:52;;;;;;;;;2.00;2.00;;;;;24.46;65.06;100645.47;5037401;28;45423;-78
2023/07/02 07:21:17;;;;;;;;;4.00;3.67;;;;;24.50;64.60;100641.84;5038024;28;45370;-78
2023/07/02 07:23:43;;;;;;;;;2.00;2.00;;;;;24.42;63.95;100633.13;5038504;28;45951;-76
2023/07/02 07:26:09;;;;;;;;;2.67;2.00;;;;;24.44;64.12;100647.31;5037944;28;45237;-77
2023/07/02 07:28:34;;;;;;;;;4.67;3.67;;;;;24.49;64.96;100644.53;5038491;28;45443;-77
2023/07/02 07:31:00;;;;;;;;;3.00;3.00;;;;;24.53;64.43;100646.22;5038829;28;45233;-78
2023/07/02 07:33:25;;;;;;;;;4.00;3.33;;;;;24.51;64.58;100646.28;5016636;28;45552;-77
2023/07/02 07:35:51;;;;;;;;;4.00;4.00;;;;;24.34;64.75;100627.13;5003046;28;45395;-76
2023/07/02 07:38:16;;;;;;;;;4.67;3.67;;;;;24.37;64.82;100651.06;5006429;28;45379;-77
2023/07/02 07:40:45;;;;;;;;;4.00;3.33;;;;;24.26;65.35;100638.00;5026541;28;45552;-73
2023/07/02 07:43:11;;;;;;;;;4.00;4.00;;;;;24.38;64.90;100647.47;5006601;28;45646;-77
2023/07/02 07:45:37;;;;;;;;;5.33;5.00;;;;;24.38;65.32;100643.00;5011627;28;45544;-77
2023/07/02 07:48:04;;;;;;;;;6.00;4.00;;;;;24.44;65.47;100638.44;5006526;28;45637;-77
2023/07/02 07:50:29;;;;;;;;;8.00;5.33;;;;;24.51;65.29;100656.06;5008370;28;45555;-76
2023/07/02 07:52:55;;;;;;;;;4.00;4.00;;;;;24.50;64.96;100646.28;5007756;28;45795;-76
2023/07/02 07:55:20;;;;;;;;;5.67;5.00;;;;;24.46;65.16;100645.47;5007352;28;45507;-77
2023/07/02 07:57:47;;;;;;;;;5.33;5.00;;;;;24.44;65.50;100641.97;5005806;28;45598;-78
2023/07/02 08:00:13;;;;;;;;;6.00;6.00;;;;;24.32;66.04;100632.50;5009822;28;45998;-77
2023/07/02 08:02:38;;;;;;;;;5.00;5.00;;;;;24.46;66.17;100655.28;5026638;28;45495;-78
2023/07/02 08:05:04;;;;;;;;;5.00;5.00;;;;;24.42;66.54;100650.03;5005733;28;45426;-77
2023/07/02 08:07:32;;;;;;;;;5.00;5.00;;;;;24.45;65.82;100654.41;5014077;28;45300;-76
2023/07/02 08:09:58;;;;;;;;;6.00;5.33;;;;;24.69;65.68;100658.28;5016960;28;45650;-75
2023/07/02 08:12:24;;;;;;;;;5.67;5.00;;;;;24.82;65.12;100658.81;5038701;28;45520;-75
2023/07/02 08:14:49;;;;;;;;;4.00;4.00;;;;;24.97;64.76;100636.16;5041545;28;45419;-77
2023/07/02 08:17:15;;;;;;;;;6.00;6.00;;;;;25.15;63.90;100642.78;5018786;28;45478;-76
2023/07/02 08:19:41;;;;;;;;;4.33;4.33;;;;;25.26;64.24;100631.78;5017904;28;45316;-80
2023/07/02 08:22:06;;;;;;;;;7.33;6.67;;;;;25.34;64.32;100644.00;5017308;28;45897;-77
2023/07/02 08:24:33;;;;;;;;;5.00;5.00;;;;;25.42;63.24;100648.25;5018172;28;45527;-74
2023/07/02 08:26:58;;;;;;;;;5.33;5.00;;;;;25.50;62.99;100652.44;5007256;28;45529;-77
2023/07/02 08:29:24;;;;;;;;;6.67;6.33;;;;;25.33;63.25;100641.38;5005399;28;45494;-76
2023/07/02 08:31:49;;;;;;;;;6.00;6.00;;;;;25.25;64.13;100652.31;5002016;28;45680;-75
2023/07/02 08:34:15;;;;;;;;;9.00;9.00;;;;;25.28;63.85;100641.50;5000952;28;45420;-74
2023/07/02 08:36:43;;;;;;;;;14.33;12.33;;;;;25.48;63.23;100656.09;5015600;28;45642;-78
2023/07/02 08:39:09;;;;;;;;;7.00;7.00;;;;;25.51;63.24;100638.16;5017269;28;45465;-77
2023/07/02 08:41:46;;;;;;;;;8.33;8.00;;;;;25.62;63.10;100648.50;5023307;28;45247;-77
2023/07/02 08:44:13;;;;;;;;;7.33;6.33;;;;;25.56;63.11;100621.94;5035659;28;45533;-79
2023/07/02 08:46:40;;;;;;;;;8.00;7.00;;;;;25.87;62.58;100648.63;5035445;28;45526;-78
2023/07/02 08:49:06;;;;;;;;;5.67;5.67;;;;;25.92;62.15;100643.16;5016813;28;45541;-79
2023/07/02 08:51:32;;;;;;;;;9.00;9.00;;;;;25.57;62.86;100642.44;5023801;28;45568;-80
2023/07/02 08:53:58;;;;;;;;;6.00;6.00;;;;;25.28;63.05;100590.69;5022806;28;45541;-78
2023/07/02 08:56:23;;;;;;;;;6.00;6.00;;;;;25.60;63.23;100637.88;5023381;28;45292;-80
2023/07/02 08:58:49;;;;;;;;;9.67;9.33;;;;;25.62;63.28;100640.47;5024916;28;45423;-79
2023/07/02 09:01:15;;;;;;;;;36.00;31.00;;;;;25.55;63.08;100622.88;5030907;28;45514;-80
2023/07/02 09:03:41;;;;;;;;;8.00;8.00;;;;;25.71;62.60;100639.34;5035492;28;45367;-81
2023/07/02 09:06:09;;;;;;;;;5.00;5.00;;;;;25.88;62.38;100641.47;5022674;28;45615;-75
2023/07/02 09:08:36;;;;;;;;;3.33;3.00;;;;;25.69;62.72;100630.47;5016195;28;45588;-78
2023/07/02 09:11:16;;;;;;;;;4.00;4.00;;;;;25.62;63.60;100632.47;5016966;28;45552;-76
2023/07/02 09:13:49;;;;;;;;;4.67;4.33;;;;;25.81;63.42;100638.13;5012801;28;45558;-78
2023/07/02 09:16:36;;;;;;;;;5.33;5.00;;;;;25.94;62.67;100647.56;5015463;28;45590;-78
2023/07/02 09:19:07;;;;;;;;;4.67;4.00;;;;;26.05;62.46;100654.34;5014502;28;45684;-76
2023/07/02 09:21:44;;;;;;;;;2.00;2.00;;;;;25.89;62.47;100641.41;5014447;28;45464;-77
2023/07/02 09:24:17;;;;;;;;;1.33;1.33;;;;;25.66;62.94;100636.78;5029469;28;45578;-74
2023/07/02 09:26:49;;;;;;;;;1.00;1.00;;;;;25.50;63.83;100640.88;5035763;28;45493;-79
2023/07/02 09:29:24;;;;;;;;;3.00;3.00;;;;;25.24;65.48;100655.00;5021352;28;45333;-78
2023/07/02 09:31:50;;;;;;;;;3.33;2.33;;;;;25.35;65.10;100647.56;5016552;28;46236;-77
2023/07/02 09:34:16;;;;;;;;;3.00;3.00;;;;;25.54;64.56;100650.53;5019526;28;45430;-77
2023/07/02 09:36:42;;;;;;;;;1.67;1.67;;;;;25.78;64.20;100640.88;5019911;28;45382;-79
2023/07/02 09:39:22;;;;;;;;;1.00;1.00;;;;;26.12;62.94;100645.19;5018387;28;45506;-78
2023/07/02 09:41:49;;;;;;;;;0.33;0.33;;;;;26.41;62.47;100657.59;5013934;28;47973;-78
2023/07/02 09:44:17;;;;;;;;;5.00;4.67;;;;;26.45;62.74;100651.22;5018055;28;45528;-79
2023/07/02 09:47:07;;;;;;;;;3.00;2.00;;;;;26.67;62.36;100651.38;5018206;28;45430;-79
2023/07/02 09:49:35;;;;;;;;;1.00;1.00;;;;;26.89;61.50;100653.28;5034061;28;45379;-76
2023/07/02 09:52:09;;;;;;;;;1.00;0.00;;;;;26.85;61.52;100648.97;5018263;28;47099;-78
2023/07/02 09:54:35;;;;;;;;;0.00;0.00;;;;;26.99;61.25;100654.69;5018719;28;45510;-77
2023/07/02 09:57:03;;;;;;;;;0.00;0.00;;;;;27.07;60.89;100654.41;5018476;28;45336;-74
2023/07/02 09:59:29;;;;;;;;;0.00;0.00;;;;;27.11;60.39;100653.38;5018934;28;45660;-78
2023/07/02 10:01:56;;;;;;;;;0.00;0.00;;;;;27.12;61.30;100656.00;5017565;28;45563;-80
2023/07/02 10:04:25;;;;;;;;;0.00;0.00;;;;;27.24;59.06;100646.66;5018134;28;45602;-80
2023/07/02 10:06:53;;;;;;;;;1.00;1.00;;;;;27.27;60.24;100657.25;5018524;28;45482;-79
2023/07/02 10:09:21;;;;;;;;;0.67;0.00;;;;;27.27;60.28;100659.94;5018697;28;45419;-73
2023/07/02 10:11:47;;;;;;;;;0.00;0.00;;;;;27.19;60.04;100657.50;5016964;28;46352;-76
2023/07/02 10:14:13;;;;;;;;;0.00;0.00;;;;;27.22;59.82;100661.91;5017884;28;45445;-80
2023/07/02 10:16:55;;;;;;;;;0.00;0.00;;;;;27.33;59.55;100656.16;5015576;28;45466;-76
2023/07/02 10:19:22;;;;;;;;;1.00;1.00;;;;;27.57;57.90;100670.44;5014643;28;45395;-80
2023/07/02 10:22:40;;;;;;;;;0.00;0.00;;;;;27.57;58.32;100673.13;5018104;28;45544;-77
2023/07/02 10:25:06;;;;;;;;;0.00;0.00;;;;;27.75;58.00;100666.16;5006121;28;45586;-79
2023/07/02 10:27:39;;;;;;;;;0.00;0.00;;;;;27.89;57.90;100661.13;5009555;28;45516;-78
2023/07/02 10:30:07;;;;;;;;;0.00;0.00;;;;;28.00;57.72;100674.16;5017657;28;45731;-78
2023/07/02 10:32:37;;;;;;;;;0.00;0.00;;;;;28.13;57.83;100672.72;5015427;28;46793;-76
2023/07/02 10:35:25;;;;;;;;;0.00;0.00;;;;;28.44;57.20;100676.81;5017813;28;45576;-79
2023/07/02 10:37:51;;;;;;;;;0.00;0.00;;;;;28.86;56.45;100675.06;5015866;28;45450;-79
2023/07/02 10:40:16;;;;;;;;;0.00;0.00;;;;;29.23;54.89;100652.78;5018228;28;45637;-77
2023/07/02 10:42:52;;;;;;;;;0.00;0.00;;;;;29.58;54.67;100662.84;5017523;28;45406;-77
2023/07/02 10:45:20;;;;;;;;;1.33;1.33;;;;;29.06;55.06;100675.03;5015955;28;45599;-76
2023/07/02 10:47:46;;;;;;;;;0.00;0.00;;;;;29.26;54.88;100670.59;5018755;28;45489;-78
2023/07/02 10:50:20;;;;;;;;;0.00;0.00;;;;;29.20;55.50;100677.13;5018207;28;45418;-79
2023/07/02 10:52:47;;;;;;;;;0.00;0.00;;;;;29.26;54.90;100675.97;5028583;28;46212;-77
2023/07/02 10:55:18;;;;;;;;;1.00;0.00;;;;;29.18;55.49;100678.16;5022608;28;45510;-79
2023/07/02 10:57:43;;;;;;;;;0.00;0.00;;;;;29.31;53.79;100660.50;5031400;28;45583;-78
2023/07/02 11:00:10;;;;;;;;;0.00;0.00;;;;;29.80;53.95;100676.16;5018622;28;45407;-80
2023/07/02 11:02:39;;;;;;;;;0.00;0.00;;;;;30.36;53.38;100677.91;5030024;28;45585;-80
2023/07/02 11:05:06;;;;;;;;;0.00;0.00;;;;;30.64;51.98;100669.31;5035994;28;46178;-80
2023/07/02 11:07:33;;;;;;;;;0.00;0.00;;;;;30.80;52.21;100682.88;5027704;28;45495;-80
2023/07/02 11:09:59;;;;;;;;;0.00;0.00;;;;;30.81;51.06;100687.28;5029207;28;45486;-80
2023/07/02 11:12:31;;;;;;;;;0.00;0.00;;;;;30.55;50.79;100659.00;5028808;28;46014;-80
2023/07/02 11:15:13;;;;;;;;;1.00;0.00;;;;;30.45;51.77;100687.38;5019683;28;45514;-80
2023/07/02 11:17:40;;;;;;;;;0.00;0.00;;;;;30.52;51.43;100694.19;5018130;28;45649;-80
2023/07/02 11:20:11;;;;;;;;;0.00;0.00;;;;;30.64;50.52;100685.50;5029608;28;45252;-80
2023/07/02 11:22:38;;;;;;;;;0.00;0.00;;;;;30.74;50.21;100683.19;5021080;28;45828;-80